createdAt,value
2022-12-06T00:01:52.054Z,10.18
2022-12-06T00:04:26.474Z,11.32
2022-12-06T00:07:00.831Z,15.63
2022-12-06T00:09:36.658Z,9.68
2022-12-06T00:12:11.090Z,7.93
2022-12-06T00:14:45.453Z,8.18
2022-12-06T00:17:19.848Z,9.18
2022-12-06T00:19:54.146Z,11.00
2022-12-06T00:22:28.657Z,8.73
2022-12-06T00:25:04.685Z,9.10
2022-12-06T00:27:38.973Z,9.65
2022-12-06T00:30:13.570Z,6.80
2022-12-06T00:32:47.852Z,8.90
2022-12-06T00:35:22.127Z,6.63
2022-12-06T00:37:56.349Z,8.13
2022-12-06T00:40:32.034Z,6.80
2022-12-06T00:43:06.343Z,8.63
2022-12-06T00:45:40.732Z,8.35
2022-12-06T00:48:15.027Z,9.25
2022-12-06T00:50:49.752Z,8.95
2022-12-06T00:53:24.256Z,10.32
2022-12-06T00:56:00.064Z,7.63
2022-12-06T00:58:34.385Z,8.38
2022-12-06T01:01:13.416Z,10.45
2022-12-06T01:03:51.664Z,7.10
2022-12-06T01:06:28.961Z,7.57
2022-12-06T01:09:05.488Z,8.15
2022-12-06T01:11:40.874Z,6.22
2022-12-06T01:14:14.658Z,6.65
2022-12-06T01:19:22.027Z,8.00
2022-12-06T01:24:29.523Z,6.97
2022-12-06T01:29:38.389Z,7.40
2022-12-06T01:32:12.215Z,10.88
2022-12-06T01:37:20.115Z,8.48
2022-12-06T01:39:53.922Z,10.63
2022-12-06T01:45:02.888Z,9.45
2022-12-06T01:47:40.403Z,8.82
2022-12-06T01:50:20.845Z,7.68
2022-12-06T01:52:59.903Z,6.13
2022-12-06T01:55:37.521Z,7.47
2022-12-06T01:58:20.454Z,8.13
2022-12-06T02:00:54.421Z,10.00
2022-12-06T02:03:30.517Z,10.55
2022-12-06T02:06:07.512Z,8.38
2022-12-06T02:08:41.418Z,7.47
2022-12-06T02:11:15.302Z,9.45
2022-12-06T02:13:50.814Z,7.43
2022-12-06T02:16:40.844Z,8.07
2022-12-06T02:19:36.389Z,7.60
2022-12-06T02:22:16.366Z,9.40
2022-12-06T02:25:02.227Z,11.50
2022-12-06T02:28:04.132Z,8.68
2022-12-06T02:30:44.346Z,7.22
2022-12-06T02:33:23.985Z,9.00
2022-12-06T02:36:04.826Z,8.88
2022-12-06T02:38:45.697Z,7.80
2022-12-06T02:41:26.911Z,8.63
2022-12-06T02:44:04.613Z,10.85
2022-12-06T02:46:41.674Z,7.07
2022-12-06T02:49:16.547Z,10.15
2022-12-06T02:51:52.840Z,6.65
2022-12-06T02:54:28.805Z,10.52
2022-12-06T02:57:02.614Z,12.23
2022-12-06T03:02:12.960Z,9.83
2022-12-06T03:05:01.253Z,10.10
2022-12-06T03:07:41.329Z,8.10
2022-12-06T03:10:28.676Z,9.55
2022-12-06T03:13:14.952Z,6.93
2022-12-06T03:15:58.160Z,11.93
2022-12-06T03:18:38.429Z,7.80
2022-12-06T03:21:16.166Z,9.07
2022-12-06T03:23:52.779Z,11.75
2022-12-06T03:26:32.183Z,8.73
2022-12-06T03:29:07.718Z,9.05
2022-12-06T03:31:43.270Z,6.53
2022-12-06T03:34:22.322Z,8.85
2022-12-06T03:36:57.714Z,8.13
2022-12-06T03:39:40.136Z,9.80
2022-12-06T03:42:14.072Z,8.18
2022-12-06T03:44:48.659Z,8.18
2022-12-06T03:47:28.306Z,6.75
2022-12-06T03:50:08.123Z,8.68
2022-12-06T03:52:42.006Z,7.93
2022-12-06T03:55:15.820Z,8.45
2022-12-06T04:00:23.333Z,7.03
2022-12-06T04:02:57.175Z,7.70
2022-12-06T04:08:06.418Z,6.55
2022-12-06T04:10:40.357Z,8.65
2022-12-06T04:15:57.240Z,8.52
2022-12-06T04:18:30.460Z,8.30
2022-12-06T04:21:24.123Z,8.93
2022-12-06T04:23:57.955Z,8.07
2022-12-06T04:26:31.782Z,8.48
2022-12-06T04:32:13.564Z,8.95
2022-12-06T04:35:04.566Z,11.23
2022-12-06T04:37:57.305Z,11.68
2022-12-06T04:40:31.098Z,11.07
2022-12-06T04:45:53.544Z,10.05
2022-12-06T04:48:27.411Z,13.73
2022-12-06T04:51:02.022Z,9.68
2022-12-06T04:53:37.270Z,13.63
2022-12-06T04:56:11.097Z,20.52
2022-12-06T05:01:18.984Z,11.73
2022-12-06T05:03:52.922Z,13.32
2022-12-06T05:06:27.079Z,23.80
2022-12-06T05:11:36.107Z,18.30
2022-12-06T05:14:10.363Z,19.27
2022-12-06T05:16:44.350Z,21.40
2022-12-06T05:19:18.289Z,20.85
2022-12-06T05:24:27.118Z,18.93
2022-12-06T05:27:00.914Z,29.10
2022-12-06T05:32:08.316Z,23.65
2022-12-06T05:34:42.123Z,20.10
2022-12-06T05:39:50.853Z,18.65
2022-12-06T05:42:24.644Z,24.73
2022-12-06T05:47:31.980Z,16.02
2022-12-06T05:52:39.752Z,25.58
2022-12-06T05:57:48.492Z,18.80
2022-12-06T06:02:57.152Z,18.50
2022-12-06T06:05:31.690Z,19.17
2022-12-06T06:08:06.116Z,17.05
2022-12-06T06:10:41.502Z,28.98
2022-12-06T06:13:15.317Z,19.83
2022-12-06T06:18:23.399Z,18.77
2022-12-06T06:21:00.426Z,20.25
2022-12-06T06:23:34.574Z,17.92
2022-12-06T06:26:11.583Z,19.77
2022-12-06T06:28:45.396Z,19.33
2022-12-06T06:33:52.892Z,24.00
2022-12-06T06:39:00.260Z,19.00
2022-12-06T06:44:09.197Z,20.85
2022-12-06T06:46:43.147Z,21.83
2022-12-06T06:51:51.610Z,23.20
2022-12-06T06:57:03.896Z,27.67
2022-12-06T06:59:37.723Z,24.30
2022-12-06T07:04:47.639Z,25.95
2022-12-06T07:07:21.760Z,27.05
2022-12-06T07:09:55.715Z,20.83
2022-12-06T07:15:04.976Z,22.67
2022-12-06T07:17:39.380Z,23.55
2022-12-06T07:20:13.730Z,26.20
2022-12-06T07:22:47.771Z,27.67
2022-12-06T07:25:21.551Z,23.77
2022-12-06T07:30:30.414Z,27.00
2022-12-06T07:33:04.241Z,26.52
2022-12-06T07:38:31.852Z,28.45
2022-12-06T07:41:28.202Z,28.35
2022-12-06T07:44:20.880Z,31.63
2022-12-06T07:46:56.995Z,35.33
2022-12-06T07:49:31.361Z,33.75
2022-12-06T07:52:05.273Z,30.80
2022-12-06T07:57:12.675Z,40.73
2022-12-06T08:02:23.022Z,35.38
2022-12-06T08:04:57.743Z,36.70
2022-12-06T08:07:32.469Z,28.98
2022-12-06T08:10:08.409Z,31.30
2022-12-06T08:12:42.230Z,27.35
2022-12-06T08:15:17.702Z,25.50
2022-12-06T08:17:51.727Z,29.92
2022-12-06T08:20:34.537Z,28.10
2022-12-06T08:23:08.599Z,28.42
2022-12-06T08:25:58.674Z,29.70
2022-12-06T08:28:33.849Z,34.47
2022-12-06T08:31:10.680Z,29.17
2022-12-06T08:33:44.802Z,29.40
2022-12-06T08:36:21.325Z,25.75
2022-12-06T08:38:55.497Z,30.10
2022-12-06T08:41:46.764Z,28.38
2022-12-06T08:44:21.457Z,24.13
2022-12-06T08:46:57.515Z,23.70
2022-12-06T08:49:32.067Z,22.30
2022-12-06T08:52:06.502Z,28.40
2022-12-06T08:54:41.503Z,22.90
2022-12-06T08:57:15.467Z,27.13
2022-12-06T08:59:49.602Z,27.98
2022-12-06T09:04:58.544Z,22.98
2022-12-06T09:07:32.433Z,23.08
2022-12-06T09:10:06.912Z,20.63
2022-12-06T09:12:40.726Z,20.45
2022-12-06T09:17:49.589Z,18.20
2022-12-06T09:20:23.508Z,20.30
2022-12-06T09:22:57.405Z,24.73
2022-12-06T09:28:05.832Z,25.63
2022-12-06T09:30:39.724Z,23.42
2022-12-06T09:35:49.101Z,25.98
2022-12-06T09:38:25.379Z,20.77
2022-12-06T09:41:09.705Z,15.50
2022-12-06T09:43:55.971Z,25.80
2022-12-06T09:46:46.528Z,21.42
2022-12-06T09:49:30.031Z,16.90
2022-12-06T09:52:22.414Z,18.10
2022-12-06T09:55:07.635Z,19.67
2022-12-06T09:57:49.056Z,14.90
2022-12-06T10:00:25.215Z,17.33
2022-12-06T10:03:30.829Z,18.25
2022-12-06T10:06:10.814Z,17.13
2022-12-06T10:08:58.151Z,15.80
2022-12-06T10:11:45.340Z,21.02
2022-12-06T10:14:33.472Z,15.95
2022-12-06T10:17:20.719Z,12.80
2022-12-06T10:20:04.880Z,15.05
2022-12-06T10:22:52.298Z,19.33
2022-12-06T10:25:32.039Z,13.57
2022-12-06T10:28:13.902Z,16.25
2022-12-06T10:30:53.055Z,23.42
2022-12-06T10:33:39.302Z,15.45
2022-12-06T10:36:18.282Z,20.38
2022-12-06T10:38:59.660Z,22.65
2022-12-06T10:41:39.981Z,13.25
2022-12-06T10:44:21.566Z,14.60
2022-12-06T10:47:07.833Z,17.27
2022-12-06T10:49:50.706Z,20.10
2022-12-06T10:52:36.281Z,16.52
2022-12-06T10:55:25.326Z,24.20
2022-12-06T10:58:09.518Z,27.65
2022-12-06T11:00:52.013Z,16.77
2022-12-06T11:03:31.678Z,15.88
2022-12-06T11:06:11.958Z,15.38
2022-12-06T11:08:48.785Z,20.90
2022-12-06T11:11:28.897Z,20.00
2022-12-06T11:14:07.036Z,24.33
2022-12-06T11:16:44.474Z,26.73
2022-12-06T11:19:24.531Z,21.35
2022-12-06T11:22:05.398Z,15.38
2022-12-06T11:24:48.762Z,18.95
2022-12-06T11:27:33.393Z,19.38
2022-12-06T11:30:19.944Z,21.75
2022-12-06T11:32:55.731Z,20.10
2022-12-06T11:35:30.443Z,17.88
2022-12-06T11:38:08.706Z,17.52
2022-12-06T11:40:45.757Z,19.63
2022-12-06T11:43:25.503Z,19.85
2022-12-06T11:46:00.052Z,34.47
2022-12-06T11:48:35.606Z,26.65
2022-12-06T11:51:18.474Z,20.23
2022-12-06T11:54:05.603Z,29.35
2022-12-06T11:56:40.561Z,30.27
2022-12-06T11:59:26.052Z,31.23
2022-12-06T12:02:02.022Z,33.75
2022-12-06T12:04:38.881Z,34.55
2022-12-06T12:07:17.318Z,29.30
2022-12-06T12:09:54.067Z,27.23
2022-12-06T12:15:51.814Z,31.25
2022-12-06T12:18:30.694Z,24.93
2022-12-06T12:21:07.520Z,21.20
2022-12-06T12:23:45.965Z,21.90
2022-12-06T12:26:21.981Z,20.02
2022-12-06T12:29:06.159Z,26.65
2022-12-06T12:34:22.704Z,21.40
2022-12-06T12:36:59.129Z,22.08
2022-12-06T12:39:39.986Z,14.93
2022-12-06T12:42:29.094Z,20.20
2022-12-06T12:45:06.112Z,19.88
2022-12-06T12:47:41.349Z,15.05
2022-12-06T12:50:21.019Z,18.33
2022-12-06T12:52:55.394Z,15.25
2022-12-06T12:55:30.538Z,13.95
2022-12-06T12:58:11.632Z,17.48
2022-12-06T13:00:49.190Z,15.13
2022-12-06T13:03:50.110Z,16.38
2022-12-06T13:06:29.938Z,15.25
2022-12-06T13:09:07.116Z,13.35
2022-12-06T13:11:46.164Z,15.07
2022-12-06T13:14:22.474Z,14.77
2022-12-06T13:16:59.177Z,14.95
2022-12-06T13:19:39.522Z,13.40
2022-12-06T13:22:21.362Z,11.95
2022-12-06T13:25:01.739Z,18.33
2022-12-06T13:27:41.066Z,14.52
2022-12-06T13:30:19.017Z,11.45
2022-12-06T13:32:56.243Z,10.80
2022-12-06T13:35:34.476Z,10.70
2022-12-06T13:38:27.073Z,15.68
2022-12-06T13:41:01.753Z,16.27
2022-12-06T13:43:59.341Z,12.55
2022-12-06T13:46:34.539Z,15.68
2022-12-06T13:49:27.574Z,23.85
2022-12-06T13:52:02.781Z,15.35
2022-12-06T13:54:36.705Z,20.38
2022-12-06T13:57:32.560Z,8.88
2022-12-06T14:00:56.965Z,12.85
2022-12-06T14:03:43.127Z,9.87
2022-12-06T14:06:17.010Z,12.77
2022-12-06T14:08:59.611Z,11.57
2022-12-06T14:11:39.507Z,11.63
2022-12-06T14:14:17.765Z,13.48
2022-12-06T14:16:54.424Z,14.35
2022-12-06T14:19:33.547Z,10.35
2022-12-06T14:22:21.741Z,9.65
2022-12-06T14:25:03.279Z,12.40
2022-12-06T14:27:45.011Z,12.40
2022-12-06T14:30:25.516Z,8.13
2022-12-06T14:33:00.830Z,7.93
2022-12-06T14:35:36.946Z,12.07
2022-12-06T14:38:23.473Z,9.20
2022-12-06T14:41:16.609Z,14.73
2022-12-06T14:43:50.611Z,13.10
2022-12-06T14:46:27.685Z,12.23
2022-12-06T14:49:19.399Z,19.05
2022-12-06T14:51:53.881Z,11.00
2022-12-06T14:54:37.473Z,16.90
2022-12-06T14:57:26.004Z,22.77
2022-12-06T15:00:27.020Z,15.57
2022-12-06T15:03:26.091Z,19.33
2022-12-06T15:06:18.326Z,13.55
2022-12-06T15:08:55.440Z,17.20
2022-12-06T15:11:52.696Z,10.82
2022-12-06T15:14:30.893Z,13.10
2022-12-06T15:17:07.264Z,15.88
2022-12-06T15:19:47.442Z,13.02
2022-12-06T15:22:25.381Z,11.15
2022-12-06T15:25:00.474Z,12.60
2022-12-06T15:27:34.524Z,17.10
2022-12-06T15:30:14.054Z,10.95
2022-12-06T15:32:48.210Z,16.65
2022-12-06T15:35:22.269Z,12.63
2022-12-06T15:37:56.406Z,11.50
2022-12-06T15:40:30.323Z,15.18
2022-12-06T15:43:04.261Z,21.95
2022-12-06T15:45:40.235Z,17.67
2022-12-06T15:48:14.108Z,8.85
2022-12-06T15:53:23.008Z,10.07
2022-12-06T15:55:57.196Z,13.70
2022-12-06T15:58:30.997Z,11.18
2022-12-06T16:03:41.021Z,10.65
2022-12-06T16:06:16.105Z,11.45
2022-12-06T16:08:50.091Z,12.68
2022-12-06T16:11:26.120Z,17.95
2022-12-06T16:13:59.951Z,13.05
2022-12-06T16:16:39.934Z,10.13
2022-12-06T16:19:17.046Z,14.15
2022-12-06T16:21:55.734Z,9.07
2022-12-06T16:24:28.521Z,14.07
2022-12-06T16:27:02.465Z,14.65
2022-12-06T16:29:37.555Z,13.88
2022-12-06T16:34:46.293Z,15.18
2022-12-06T16:39:53.601Z,13.65
2022-12-06T16:45:01.048Z,13.20
2022-12-06T16:47:36.546Z,10.32
2022-12-06T16:50:17.791Z,10.90
2022-12-06T16:52:52.279Z,15.02
2022-12-06T16:55:26.098Z,12.18
2022-12-06T17:00:33.638Z,15.70
2022-12-06T17:03:08.967Z,12.85
2022-12-06T17:05:43.390Z,10.18
2022-12-06T17:08:21.979Z,16.75
2022-12-06T17:11:16.155Z,14.95
2022-12-06T17:13:49.929Z,19.90
2022-12-06T17:16:23.861Z,12.13
2022-12-06T17:18:59.425Z,16.08
2022-12-06T17:21:33.591Z,13.77
2022-12-06T17:24:08.046Z,18.45
2022-12-06T17:26:42.257Z,14.80
2022-12-06T17:29:16.235Z,19.20
2022-12-06T17:31:50.557Z,19.33
2022-12-06T17:34:26.572Z,14.18
2022-12-06T17:37:01.576Z,15.27
2022-12-06T17:39:36.150Z,12.52
2022-12-06T17:42:28.999Z,14.77
2022-12-06T17:45:27.032Z,16.13
2022-12-06T17:48:01.015Z,19.83
2022-12-06T17:50:37.162Z,17.77
2022-12-06T17:53:11.163Z,19.30
2022-12-06T17:55:45.037Z,13.60
2022-12-06T17:58:18.939Z,17.52
2022-12-06T18:03:26.930Z,14.50
2022-12-06T18:06:06.105Z,19.25
2022-12-06T18:08:42.809Z,14.50
2022-12-06T18:13:50.991Z,16.40
2022-12-06T18:16:28.019Z,22.58
2022-12-06T18:19:08.335Z,18.65
2022-12-06T18:21:44.670Z,13.60
2022-12-06T18:24:22.134Z,17.67
2022-12-06T18:26:57.971Z,16.65
2022-12-06T18:29:32.453Z,15.38
2022-12-06T18:32:07.080Z,15.18
2022-12-06T18:34:41.086Z,17.33
2022-12-06T18:37:16.559Z,13.50
2022-12-06T18:39:50.592Z,17.55
2022-12-06T18:42:24.755Z,18.25
2022-12-06T18:44:58.877Z,20.80
2022-12-06T18:47:32.900Z,22.40
2022-12-06T18:50:10.360Z,21.13
2022-12-06T18:52:46.082Z,24.45
2022-12-06T18:55:20.177Z,18.85
2022-12-06T18:57:54.333Z,25.35
2022-12-06T19:00:28.292Z,22.08
2022-12-06T19:03:02.267Z,25.70
2022-12-06T19:06:01.225Z,22.60
2022-12-06T19:11:07.760Z,28.42
2022-12-06T19:13:41.874Z,16.95
2022-12-06T19:16:16.128Z,29.90
2022-12-06T19:18:51.553Z,20.52
2022-12-06T19:21:26.523Z,21.60
2022-12-06T19:24:00.523Z,32.20
2022-12-06T19:26:35.870Z,22.08
2022-12-06T19:29:10.579Z,27.90
2022-12-06T19:31:44.681Z,19.98
2022-12-06T19:34:19.932Z,22.00
2022-12-06T19:36:55.489Z,24.23
2022-12-06T19:39:29.375Z,21.88
2022-12-06T19:42:22.483Z,21.52
2022-12-06T19:44:56.484Z,20.83
2022-12-06T19:47:31.107Z,22.13
2022-12-06T19:50:05.430Z,23.42
2022-12-06T19:52:39.634Z,23.27
2022-12-06T19:55:13.645Z,21.63
2022-12-06T19:57:49.228Z,23.27
2022-12-06T20:00:23.313Z,25.05
2022-12-06T20:02:57.263Z,23.35
2022-12-06T20:05:31.169Z,24.45
2022-12-06T20:08:05.169Z,30.23
2022-12-06T20:10:40.330Z,26.58
2022-12-06T20:13:15.754Z,35.58
2022-12-06T20:15:49.784Z,28.20
2022-12-06T20:18:23.720Z,25.17
2022-12-06T20:20:58.133Z,32.92
2022-12-06T20:23:32.169Z,27.92
2022-12-06T20:28:41.256Z,24.70
2022-12-06T20:31:18.786Z,22.90
2022-12-06T20:33:53.883Z,26.05
2022-12-06T20:36:28.668Z,27.42
2022-12-06T20:39:03.399Z,23.40
2022-12-06T20:41:37.434Z,20.50
2022-12-06T20:44:12.971Z,30.85
2022-12-06T20:46:47.012Z,23.58
2022-12-06T20:49:21.237Z,26.88
2022-12-06T20:51:55.422Z,25.10
2022-12-06T20:54:29.482Z,23.65
2022-12-06T20:57:07.559Z,22.55
2022-12-06T20:59:43.115Z,22.50
2022-12-06T21:02:17.182Z,23.42
2022-12-06T21:04:51.148Z,21.27
2022-12-06T21:07:25.738Z,20.52
2022-12-06T21:09:59.979Z,24.65
2022-12-06T21:12:34.115Z,16.92
2022-12-06T21:17:43.774Z,22.17
2022-12-06T21:20:18.031Z,20.67
2022-12-06T21:22:52.124Z,18.77
2022-12-06T21:25:26.058Z,16.75
2022-12-06T21:27:59.932Z,18.05
2022-12-06T21:30:35.323Z,17.58
2022-12-06T21:33:09.639Z,20.63
2022-12-06T21:35:43.947Z,16.48
2022-12-06T21:38:18.972Z,15.68
2022-12-06T21:40:56.393Z,16.40
2022-12-06T21:43:32.645Z,18.85
2022-12-06T21:46:11.395Z,21.00
2022-12-06T21:48:46.504Z,17.80
2022-12-06T21:51:21.189Z,18.60
2022-12-06T21:53:55.621Z,13.13
2022-12-06T21:56:31.122Z,20.95
2022-12-06T21:59:05.159Z,15.88
2022-12-06T22:01:41.250Z,16.52
2022-12-06T22:04:19.929Z,12.90
2022-12-06T22:06:57.707Z,15.57
2022-12-06T22:09:35.608Z,13.65
2022-12-06T22:12:10.499Z,13.15
2022-12-06T22:14:45.406Z,17.08
2022-12-06T22:17:21.821Z,12.50
2022-12-06T22:19:56.578Z,13.35
2022-12-06T22:22:31.193Z,12.55
2022-12-06T22:25:06.361Z,11.88
2022-12-06T22:27:41.167Z,10.32
2022-12-06T22:30:16.589Z,11.80
2022-12-06T22:32:52.862Z,9.02
2022-12-06T22:35:28.750Z,13.75
2022-12-06T22:38:03.664Z,10.55
2022-12-06T22:40:38.395Z,13.93
2022-12-06T22:43:14.195Z,8.80
2022-12-06T22:45:49.507Z,14.07
2022-12-06T22:48:26.033Z,8.85
2022-12-06T22:51:18.367Z,8.30
2022-12-06T22:53:57.454Z,13.52
2022-12-06T22:56:33.669Z,10.48
2022-12-06T22:59:10.496Z,11.45
2022-12-06T23:01:46.597Z,8.82
2022-12-06T23:04:24.389Z,13.43
2022-12-06T23:06:59.948Z,8.23
2022-12-06T23:09:35.402Z,9.85
2022-12-06T23:12:11.323Z,12.07
2022-12-06T23:14:46.389Z,8.80
2022-12-06T23:17:21.140Z,8.77
2022-12-06T23:19:57.577Z,8.77
2022-12-06T23:22:34.107Z,7.32
2022-12-06T23:25:09.694Z,6.75
2022-12-06T23:27:44.438Z,9.27
2022-12-06T23:30:19.355Z,7.03
2022-12-06T23:32:54.166Z,7.63
2022-12-06T23:35:30.601Z,6.93
2022-12-06T23:38:09.571Z,12.25
2022-12-06T23:40:44.240Z,8.43
2022-12-06T23:43:19.114Z,7.13
2022-12-06T23:45:59.237Z,6.28
2022-12-06T23:48:36.263Z,9.35
2022-12-06T23:51:15.515Z,8.48
2022-12-06T23:53:52.733Z,8.52
2022-12-06T23:56:29.982Z,12.30
2022-12-06T23:59:07.155Z,7.88
